createdAt,value
2019-01-16T09:18:11.775Z,5.80
2019-01-16T09:21:17.152Z,5.80
2019-01-16T09:24:22.352Z,5.90
2019-01-16T09:27:31.311Z,6.00
2019-01-16T09:30:39.815Z,6.10
2019-01-16T09:33:49.309Z,6.20
2019-01-16T09:37:05.028Z,6.30
2019-01-16T09:40:12.866Z,6.40
2019-01-16T09:43:22.078Z,6.40
2019-01-16T09:46:30.958Z,6.40
2019-01-16T09:49:38.701Z,6.40
2019-01-16T09:52:43.075Z,6.40
2019-01-16T09:55:58.354Z,6.50
2019-01-16T09:59:06.379Z,6.50
2019-01-16T10:02:24.745Z,6.50
2019-01-16T10:05:42.472Z,6.50
2019-01-16T10:09:07.147Z,6.50
2019-01-16T10:12:19.395Z,6.60
2019-01-16T10:15:42.290Z,6.60
2019-01-16T10:19:04.459Z,6.60
2019-01-16T10:22:16.432Z,6.50
2019-01-16T10:25:17.131Z,6.60
2019-01-16T10:28:25.257Z,6.50
2019-01-16T10:31:28.326Z,6.50
2019-01-16T10:34:36.274Z,6.60
2019-01-16T10:37:45.559Z,6.70
2019-01-16T10:41:09.770Z,6.60
2019-01-16T10:44:09.918Z,6.70
2019-01-16T10:47:31.547Z,6.70
2019-01-16T10:50:39.504Z,6.80
2019-01-16T10:53:48.834Z,6.70
2019-01-16T10:56:57.648Z,6.70
2019-01-16T11:00:12.907Z,6.80
2019-01-16T11:03:22.014Z,6.80
2019-01-16T11:06:31.498Z,6.90
2019-01-16T11:09:39.378Z,6.80
2019-01-16T11:12:48.378Z,6.90
2019-01-16T11:15:49.317Z,6.90
2019-01-16T11:19:13.834Z,6.90
2019-01-16T11:22:16.619Z,6.90
2019-01-16T11:25:26.444Z,7.00
2019-01-16T11:28:34.806Z,7.00
2019-01-16T11:31:50.187Z,7.00
2019-01-16T11:34:58.220Z,6.90
2019-01-16T11:38:14.831Z,7.00
2019-01-16T11:41:22.826Z,7.10
2019-01-16T11:44:21.522Z,7.20
2019-01-16T11:47:39.801Z,7.20
2019-01-16T11:51:07.565Z,7.20
2019-01-16T11:54:16.763Z,7.20
2019-01-16T11:57:31.806Z,7.20
2019-01-16T12:00:43.955Z,7.20
2019-01-16T12:03:46.761Z,7.10
2019-01-16T12:06:53.570Z,7.00
2019-01-16T12:10:21.091Z,7.00
2019-01-16T12:13:28.986Z,7.00
2019-01-16T12:16:30.977Z,7.00
2019-01-16T12:19:39.083Z,6.90
2019-01-16T12:22:47.264Z,6.90
2019-01-16T12:25:49.146Z,7.00
2019-01-16T12:28:58.779Z,7.10
2019-01-16T12:32:11.370Z,7.10
2019-01-16T12:35:35.667Z,7.10
2019-01-16T12:38:41.704Z,7.10
2019-01-16T12:41:59.754Z,7.20
2019-01-16T12:45:07.466Z,7.20
2019-01-16T12:48:17.569Z,7.20
2019-01-16T12:51:25.528Z,7.30
2019-01-16T12:54:33.280Z,7.50
2019-01-16T12:57:45.922Z,7.50
2019-01-16T13:00:49.798Z,7.70
2019-01-16T13:03:58.654Z,8.00
2019-01-16T13:07:08.676Z,8.40
2019-01-16T13:10:10.174Z,8.70
2019-01-16T13:13:25.602Z,8.70
2019-01-16T13:16:33.577Z,8.50
2019-01-16T13:19:33.226Z,8.40
2019-01-16T13:22:45.934Z,8.50
2019-01-16T13:26:04.506Z,8.30
2019-01-16T13:29:12.800Z,7.90
2019-01-16T13:32:21.894Z,7.70
2019-01-16T13:35:26.541Z,7.50
2019-01-16T13:38:54.098Z,7.20
2019-01-16T13:41:59.938Z,7.00
2019-01-16T13:45:22.557Z,6.80
2019-01-16T13:48:34.814Z,6.80
2019-01-16T13:51:46.321Z,6.70
2019-01-16T13:54:52.614Z,6.70
2019-01-16T13:58:09.649Z,6.70
2019-01-16T14:01:25.158Z,6.80
2019-01-16T14:04:27.926Z,6.80
2019-01-16T14:07:46.645Z,6.80
2019-01-16T14:11:05.151Z,6.80
2019-01-16T14:14:13.110Z,6.70
2019-01-16T14:17:28.146Z,6.70
2019-01-16T14:20:31.213Z,6.70
2019-01-16T14:23:44.096Z,6.60
2019-01-16T14:26:52.139Z,6.70
2019-01-16T14:30:10.411Z,6.70
2019-01-16T14:33:25.266Z,6.70
2019-01-16T14:36:40.549Z,6.70
2019-01-16T14:39:48.533Z,6.70
2019-01-16T14:42:52.032Z,6.70
2019-01-16T14:46:00.678Z,6.70
2019-01-16T14:49:15.620Z,6.70
2019-01-16T14:52:24.037Z,6.70
2019-01-16T14:55:42.135Z,6.70
2019-01-16T14:58:49.986Z,6.70
2019-01-16T15:02:08.265Z,6.70
2019-01-16T15:05:22.891Z,6.70
2019-01-16T15:08:30.905Z,6.70
2019-01-16T15:11:40.046Z,6.70
2019-01-16T15:14:58.262Z,6.70
2019-01-16T15:18:16.586Z,6.60
2019-01-16T15:21:20.545Z,6.60
2019-01-16T15:24:26.814Z,6.60
2019-01-16T15:27:28.162Z,6.60
2019-01-16T15:30:26.245Z,6.60
2019-01-16T15:33:41.157Z,6.60
2019-01-16T15:36:54.254Z,6.60
2019-01-16T15:40:10.066Z,6.60
2019-01-16T15:43:18.236Z,6.60
2019-01-16T15:46:27.617Z,6.50
2019-01-16T15:49:35.237Z,6.50
2019-01-16T15:52:49.766Z,6.50
2019-01-16T15:55:54.270Z,6.50
2019-01-16T15:59:00.925Z,6.50
2019-01-16T16:02:11.205Z,6.50
2019-01-16T16:05:19.641Z,6.40
2019-01-16T16:08:32.861Z,6.50
2019-01-16T16:11:40.783Z,6.40
2019-01-16T16:14:56.477Z,6.40
2019-01-16T16:18:04.018Z,6.40
2019-01-16T16:21:05.598Z,6.40
2019-01-16T16:24:12.834Z,6.30
2019-01-16T16:27:20.739Z,6.40
2019-01-16T16:30:39.074Z,6.40
2019-01-16T16:33:58.109Z,6.30
2019-01-16T16:37:22.795Z,6.40
2019-01-16T16:40:20.701Z,6.40
2019-01-16T16:43:28.909Z,6.30
2019-01-16T16:46:47.595Z,6.40
2019-01-16T16:49:59.067Z,6.40
2019-01-16T16:53:19.044Z,6.40
2019-01-16T16:56:29.687Z,6.40
2019-01-16T16:59:40.906Z,6.30
2019-01-16T17:03:05.485Z,6.30
2019-01-16T17:06:03.550Z,6.30
2019-01-16T17:09:05.561Z,6.40
2019-01-16T17:12:23.458Z,6.40
2019-01-16T17:15:35.616Z,6.40
